createdAt,value
2023-05-06T00:03:52.408Z,99809.50
2023-05-06T00:07:54.346Z,99804.78
2023-05-06T00:11:56.342Z,99803.09
2023-05-06T00:15:58.124Z,99798.66
2023-05-06T00:19:59.779Z,99801.13
2023-05-06T00:24:01.432Z,99806.94
2023-05-06T00:28:03.160Z,99809.16
2023-05-06T00:32:05.185Z,99802.50
2023-05-06T00:36:07.194Z,99801.34
2023-05-06T00:40:09.856Z,99802.75
2023-05-06T00:44:11.521Z,99803.84
2023-05-06T00:48:16.820Z,99799.94
2023-05-06T00:52:20.105Z,99801.31
2023-05-06T00:56:21.853Z,99799.03
2023-05-06T01:00:23.970Z,99797.34
2023-05-06T01:04:26.817Z,99798.97
2023-05-06T01:08:54.754Z,99789.81
2023-05-06T01:13:12.404Z,99788.94
2023-05-06T01:17:18.905Z,99795.78
2023-05-06T01:21:22.242Z,99797.38
2023-05-06T01:25:24.040Z,99797.63
2023-05-06T01:29:25.737Z,99810.25
2023-05-06T01:33:35.471Z,99807.13
2023-05-06T01:38:14.521Z,99809.25
2023-05-06T01:42:17.628Z,99797.91
2023-05-06T01:46:22.230Z,99802.00
2023-05-06T01:50:24.035Z,99805.31
2023-05-06T01:54:25.664Z,99809.38
2023-05-06T01:58:27.477Z,99808.81
2023-05-06T02:02:29.199Z,99807.13
2023-05-06T02:06:30.951Z,99807.13
2023-05-06T02:10:32.716Z,99811.47
2023-05-06T02:14:38.805Z,99812.00
2023-05-06T02:18:41.669Z,99813.06
2023-05-06T02:22:43.596Z,99817.44
2023-05-06T02:26:45.221Z,99821.25
2023-05-06T02:30:47.021Z,99820.09
2023-05-06T02:34:48.766Z,99817.84
2023-05-06T02:38:50.611Z,99820.31
2023-05-06T02:42:52.568Z,99818.34
2023-05-06T02:46:54.299Z,99829.03
2023-05-06T02:50:57.345Z,99825.44
2023-05-06T02:54:59.085Z,99817.97
2023-05-06T02:59:03.906Z,99824.00
2023-05-06T03:03:10.137Z,99815.38
2023-05-06T03:07:12.751Z,99806.78
2023-05-06T03:11:16.907Z,99807.31
2023-05-06T03:15:18.944Z,99813.59
2023-05-06T03:19:20.912Z,99815.75
2023-05-06T03:23:23.818Z,99806.34
2023-05-06T03:27:26.066Z,99807.09
2023-05-06T03:31:32.295Z,99809.25
2023-05-06T03:35:35.959Z,99815.56
2023-05-06T03:39:37.986Z,99806.97
2023-05-06T03:43:39.994Z,99819.59
2023-05-06T03:47:42.617Z,99817.63
2023-05-06T03:51:46.281Z,99823.66
2023-05-06T03:55:48.905Z,99829.69
2023-05-06T03:59:51.915Z,99829.69
2023-05-06T04:03:54.692Z,99829.69
2023-05-06T04:07:58.501Z,99826.94
2023-05-06T04:12:00.398Z,99834.09
2023-05-06T04:16:05.620Z,99833.00
2023-05-06T04:20:16.863Z,99831.94
2023-05-06T04:24:18.766Z,99832.75
2023-05-06T04:28:22.050Z,99828.06
2023-05-06T04:32:26.904Z,99827.31
2023-05-06T04:36:29.679Z,99834.00
2023-05-06T04:40:49.768Z,99845.63
2023-05-06T04:44:51.455Z,99833.22
2023-05-06T04:48:58.392Z,99841.00
2023-05-06T04:53:00.349Z,99847.66
2023-05-06T04:57:03.476Z,99850.50
2023-05-06T05:01:09.070Z,99864.34
2023-05-06T05:05:11.515Z,99867.22
2023-05-06T05:09:15.120Z,99871.38
2023-05-06T05:13:19.901Z,99878.06
2023-05-06T05:17:22.883Z,99878.66
2023-05-06T05:21:25.908Z,99880.06
2023-05-06T05:25:30.103Z,99887.56
2023-05-06T05:29:31.811Z,99889.56
2023-05-06T05:33:35.513Z,99892.13
2023-05-06T05:37:39.837Z,99892.50
2023-05-06T05:41:42.318Z,99891.78
2023-05-06T05:45:44.180Z,99890.22
2023-05-06T05:49:46.951Z,99886.47
2023-05-06T05:53:49.005Z,99887.13
2023-05-06T05:57:51.761Z,99885.38
2023-05-06T06:01:55.940Z,99882.72
2023-05-06T06:05:59.414Z,99873.72
2023-05-06T06:10:01.149Z,99880.22
2023-05-06T06:14:04.877Z,99880.91
2023-05-06T06:18:09.086Z,99886.81
2023-05-06T06:22:12.877Z,99887.97
2023-05-06T06:26:14.796Z,99880.56
2023-05-06T06:30:16.869Z,99884.22
2023-05-06T06:34:19.861Z,99888.44
2023-05-06T06:38:21.635Z,99895.97
2023-05-06T06:42:23.556Z,99899.91
2023-05-06T06:46:35.451Z,99889.47
2023-05-06T06:50:37.100Z,99898.63
2023-05-06T06:54:39.006Z,99896.44
2023-05-06T06:58:40.854Z,99908.09
2023-05-06T07:02:42.913Z,99901.94
2023-05-06T07:06:45.319Z,99906.06
2023-05-06T07:10:47.077Z,99901.94
2023-05-06T07:14:48.761Z,99908.50
2023-05-06T07:18:50.900Z,99905.59
2023-05-06T07:22:52.658Z,99910.22
2023-05-06T07:26:54.399Z,99912.56
2023-05-06T07:30:56.397Z,99920.22
2023-05-06T07:34:58.232Z,99922.50
2023-05-06T07:39:00.034Z,99922.00
2023-05-06T07:43:02.881Z,99922.06
2023-05-06T07:47:04.662Z,99928.06
2023-05-06T07:51:06.519Z,99918.94
2023-05-06T07:55:10.654Z,99930.81
2023-05-06T07:59:12.503Z,99929.38
2023-05-06T08:03:14.467Z,99930.69
2023-05-06T08:07:17.869Z,99924.66
2023-05-06T08:11:19.588Z,99929.13
2023-05-06T08:15:21.359Z,99924.69
2023-05-06T08:19:23.156Z,99935.75
2023-05-06T08:23:25.969Z,99926.47
2023-05-06T08:27:27.741Z,99928.91
2023-05-06T08:31:32.865Z,99934.25
2023-05-06T08:35:34.633Z,99932.72
2023-05-06T08:39:36.870Z,99943.06
2023-05-06T08:43:42.958Z,99935.94
2023-05-06T08:47:44.856Z,99944.28
2023-05-06T08:51:49.707Z,99932.88
2023-05-06T08:55:55.191Z,99929.69
2023-05-06T08:59:57.220Z,99930.41
2023-05-06T09:04:01.527Z,99926.94
2023-05-06T09:08:03.507Z,99930.66
2023-05-06T09:12:10.296Z,99921.94
2023-05-06T09:16:26.986Z,99928.16
2023-05-06T09:20:28.768Z,99918.69
2023-05-06T09:24:30.823Z,99920.84
2023-05-06T09:28:33.062Z,99913.56
2023-05-06T09:32:39.079Z,99909.31
2023-05-06T09:36:41.832Z,99911.25
2023-05-06T09:40:43.510Z,99912.34
2023-05-06T09:44:46.132Z,99907.66
2023-05-06T09:48:53.947Z,99906.22
2023-05-06T09:52:56.679Z,99902.41
2023-05-06T09:57:00.959Z,99903.81
2023-05-06T10:01:04.219Z,99904.69
2023-05-06T10:05:06.611Z,99901.34
2023-05-06T10:09:11.470Z,99890.06
2023-05-06T10:13:15.064Z,99892.38
2023-05-06T10:17:18.782Z,99892.94
2023-05-06T10:21:24.321Z,99896.06
2023-05-06T10:25:38.082Z,99882.34
2023-05-06T10:29:43.803Z,99880.69
2023-05-06T10:33:49.188Z,99873.69
2023-05-06T10:37:52.354Z,99873.13
2023-05-06T10:41:54.476Z,99868.88
2023-05-06T10:46:08.220Z,99852.59
2023-05-06T10:50:24.342Z,99859.53
2023-05-06T10:54:26.312Z,99851.81
2023-05-06T10:58:27.962Z,99852.13
2023-05-06T11:02:30.380Z,99845.91
2023-05-06T11:06:36.082Z,99841.66
2023-05-06T11:10:37.879Z,99837.47
2023-05-06T11:14:39.770Z,99833.25
2023-05-06T11:18:42.584Z,99828.56
2023-05-06T11:22:44.424Z,99832.06
2023-05-06T11:26:47.701Z,99822.69
2023-05-06T11:30:55.253Z,99828.00
2023-05-06T11:34:57.470Z,99824.41
2023-05-06T11:39:06.233Z,99824.41
2023-05-06T11:43:14.871Z,99821.34
2023-05-06T11:47:16.615Z,99820.59
2023-05-06T11:51:25.127Z,99815.28
2023-05-06T11:55:27.239Z,99822.22
2023-05-06T11:59:35.904Z,99820.81
2023-05-06T12:03:37.805Z,99821.75
2023-05-06T12:07:44.983Z,99813.38
2023-05-06T12:11:47.152Z,99815.63
2023-05-06T12:15:50.547Z,99815.56
2023-05-06T12:19:56.294Z,99817.91
2023-05-06T12:24:01.933Z,99815.03
2023-05-06T12:28:17.293Z,99812.59
2023-05-06T12:32:19.106Z,99802.75
2023-05-06T12:36:20.855Z,99801.63
2023-05-06T12:40:22.691Z,99793.00
2023-05-06T12:44:32.022Z,99791.81
2023-05-06T12:48:34.098Z,99791.94
2023-05-06T12:52:44.642Z,99792.84
2023-05-06T12:56:47.926Z,99790.63
2023-05-06T13:00:51.116Z,99789.13
2023-05-06T13:04:54.367Z,99773.56
2023-05-06T13:08:56.119Z,99775.59
2023-05-06T13:12:57.904Z,99775.66
2023-05-06T13:17:01.541Z,99773.94
2023-05-06T13:21:04.545Z,99767.97
2023-05-06T13:25:06.632Z,99765.75
2023-05-06T13:29:09.434Z,99759.44
2023-05-06T13:33:11.648Z,99748.63
2023-05-06T13:37:13.295Z,99748.28
2023-05-06T13:41:16.954Z,99738.38
2023-05-06T13:45:18.678Z,99730.47
2023-05-06T13:49:20.431Z,99724.44
2023-05-06T13:57:48.786Z,99717.03
2023-05-06T14:01:57.024Z,99721.00
2023-05-06T14:06:09.213Z,99702.41
2023-05-06T14:10:24.747Z,99702.53
2023-05-06T14:14:29.189Z,99698.03
2023-05-06T14:18:50.105Z,99692.75
2023-05-06T14:22:53.675Z,99691.94
2023-05-06T14:26:59.654Z,99693.78
2023-05-06T14:31:09.156Z,99698.81
2023-05-06T14:35:11.313Z,99691.31
2023-05-06T14:39:18.662Z,99682.72
2023-05-06T14:43:22.809Z,99685.63
2023-05-06T14:47:25.665Z,99682.34
2023-05-06T14:51:29.928Z,99686.66
2023-05-06T14:55:37.557Z,99682.66
2023-05-06T15:04:02.368Z,99679.47
2023-05-06T15:08:06.757Z,99681.50
2023-05-06T15:12:13.092Z,99680.03
2023-05-06T15:16:16.537Z,99680.34
2023-05-06T15:20:25.968Z,99685.16
2023-05-06T15:24:32.236Z,99693.50
2023-05-06T15:28:37.315Z,99690.94
2023-05-06T15:32:48.370Z,99683.44
2023-05-06T15:36:53.169Z,99690.81
2023-05-06T15:41:06.710Z,99687.97
2023-05-06T15:45:14.952Z,99691.72
2023-05-06T15:49:48.748Z,99691.19
2023-05-06T15:53:58.863Z,99692.38
2023-05-06T15:58:03.870Z,99703.44
2023-05-06T16:06:16.600Z,99697.00
2023-05-06T16:14:43.018Z,99689.16
2023-05-06T16:18:44.715Z,99694.16
2023-05-06T16:23:05.017Z,99697.91
2023-05-06T16:27:18.401Z,99689.44
2023-05-06T16:31:22.548Z,99687.69
2023-05-06T16:35:29.671Z,99689.13
2023-05-06T16:39:42.213Z,99683.69
2023-05-06T16:43:45.157Z,99679.28
2023-05-06T16:47:49.775Z,99687.06
2023-05-06T16:51:51.583Z,99684.41
2023-05-06T16:55:53.624Z,99683.13
2023-05-06T16:59:55.443Z,99683.78
2023-05-06T17:04:02.164Z,99680.34
2023-05-06T17:08:10.663Z,99678.69
2023-05-06T17:12:13.529Z,99669.91
2023-05-06T17:16:20.313Z,99669.41
2023-05-06T17:20:25.867Z,99655.53
2023-05-06T17:24:33.789Z,99664.09
2023-05-06T17:28:36.284Z,99670.50
2023-05-06T17:32:46.569Z,99672.56
2023-05-06T17:36:48.491Z,99671.03
2023-05-06T17:40:51.203Z,99662.72
2023-05-06T17:44:57.388Z,99668.94
2023-05-06T17:49:01.464Z,99668.06
2023-05-06T17:53:04.540Z,99667.84
2023-05-06T17:57:13.630Z,99684.06
2023-05-06T18:01:21.508Z,99670.44
2023-05-06T18:05:27.242Z,99666.56
2023-05-06T18:09:30.455Z,99666.97
2023-05-06T18:13:35.633Z,99665.03
2023-05-06T18:17:37.763Z,99666.22
2023-05-06T18:21:40.496Z,99672.16
2023-05-06T18:25:42.370Z,99676.28
2023-05-06T18:29:45.408Z,99675.50
2023-05-06T18:33:48.293Z,99684.41
2023-05-06T18:37:49.926Z,99674.59
2023-05-06T18:41:52.591Z,99675.72
2023-05-06T18:45:54.314Z,99685.13
2023-05-06T18:49:57.736Z,99682.53
2023-05-06T18:54:00.324Z,99677.44
2023-05-06T18:58:05.750Z,99678.75
2023-05-06T19:02:09.390Z,99683.47
2023-05-06T19:06:11.880Z,99690.63
2023-05-06T19:10:14.269Z,99694.75
2023-05-06T19:14:16.035Z,99694.88
2023-05-06T19:18:18.118Z,99692.28
2023-05-06T19:22:19.958Z,99699.66
2023-05-06T19:26:21.903Z,99700.94
2023-05-06T19:30:27.025Z,99704.09
2023-05-06T19:34:29.611Z,99707.75
2023-05-06T19:38:31.297Z,99694.72
2023-05-06T19:42:34.164Z,99707.31
2023-05-06T19:46:36.319Z,99712.34
2023-05-06T19:50:38.099Z,99714.59
2023-05-06T19:54:42.994Z,99715.72
2023-05-06T19:58:45.065Z,99721.91
2023-05-06T20:02:48.924Z,99724.44
2023-05-06T20:06:52.477Z,99716.75
2023-05-06T20:10:54.154Z,99724.66
2023-05-06T20:14:58.013Z,99721.59
2023-05-06T20:19:01.020Z,99723.94
2023-05-06T20:23:03.307Z,99722.28
2023-05-06T20:27:06.444Z,99720.09
2023-05-06T20:31:08.246Z,99711.19
2023-05-06T20:35:10.292Z,99713.44
2023-05-06T20:39:12.395Z,99724.34
2023-05-06T20:43:14.207Z,99716.88
2023-05-06T20:47:16.070Z,99722.44
2023-05-06T20:51:18.024Z,99721.34
2023-05-06T20:55:23.368Z,99726.59
2023-05-06T20:59:27.162Z,99725.16
2023-05-06T21:03:30.743Z,99725.41
2023-05-06T21:07:32.642Z,99724.06
2023-05-06T21:11:34.522Z,99729.69
2023-05-06T21:15:37.819Z,99723.63
2023-05-06T21:19:39.620Z,99724.53
2023-05-06T21:23:42.410Z,99728.47
2023-05-06T21:27:44.106Z,99735.53
2023-05-06T21:31:45.767Z,99730.59
2023-05-06T21:35:47.476Z,99736.25
2023-05-06T21:39:52.039Z,99728.59
2023-05-06T21:43:53.896Z,99737.00
2023-05-06T21:47:56.031Z,99728.50
2023-05-06T21:52:00.928Z,99732.75
2023-05-06T21:56:02.711Z,99727.56
2023-05-06T22:00:13.011Z,99727.94
2023-05-06T22:04:21.030Z,99717.16
2023-05-06T22:08:41.630Z,99713.59
2023-05-06T22:48:54.567Z,99704.03
2023-05-06T22:58:42.953Z,99707.03
2023-05-06T23:03:53.479Z,99707.59
2023-05-06T23:07:56.277Z,99702.28
2023-05-06T23:12:00.151Z,99695.28
2023-05-06T23:16:02.778Z,99691.94
2023-05-06T23:20:04.788Z,99704.16
2023-05-06T23:24:06.783Z,99703.63
2023-05-06T23:28:18.346Z,99699.13
2023-05-06T23:32:35.482Z,99696.09
2023-05-06T23:36:37.381Z,99691.34
2023-05-06T23:40:42.292Z,99701.59
2023-05-06T23:44:44.128Z,99698.22
2023-05-06T23:48:52.561Z,99695.72
2023-05-06T23:52:56.833Z,99699.03
2023-05-06T23:57:29.123Z,99690.94
